Bw Gdf Suez Everett — 9V2862 — position and weather

sailwx.info

Track history (hours):
 
Tides and Currents Weather Stations Pressure Air Temp Water Temp Dewpoint Dewpoint Depression Visibility Wind Speed Wind Dir Waves Ship Positions

Bw Gdf Suez Everett

Last reported at 2017-Dec-09 18:07 UTC. Time now 2017-Dec-15 20:01 UTC.
Position N 42°09' W 069°56'.

Length 277 m; draft 10.4 m.

MMSI: 564988000.

Date/timePositionNaut miles runAvg speedWind from/ knotsBaromVisibWave heightAir tempDewpointWater temp
2017-Dec-09 18:07N 42°09' W 069°56'110.8
2017-Dec-09 18:01N 42°10' W 069°57'611.2
2017-Dec-09 17:31N 42°15' W 070°00'6 9.7
2017-Dec-09 16:55N 42°17' W 070°07'510.8
2017-Dec-09 16:30N 42°18' W 070°13'510.9
2017-Dec-09 16:00N 42°18' W 070°21'611.3
2017-Dec-09 15:30N 42°19' W 070°28'611.2
2017-Dec-09 15:00N 42°19' W 070°36'511.0
2017-Dec-09 14:31N 42°20' W 070°43'611.3
2017-Dec-09 14:00N 42°23' W 070°49'510.4
2017-Dec-09 13:30N 42°21' W 070°56'4 8.3
2017-Dec-09 13:00N 42°21' W 071°01'3 5.1
2017-Dec-09 12:28N 42°23' W 071°03'0 1.0
2017-Dec-09 12:00N 42°23' W 071°04'0 0.0
2017-Dec-09 11:30N 42°23' W 071°04'0 0.0
2017-Dec-09 10:55N 42°23' W 071°04'0 0.0
2017-Dec-09 10:28N 42°23' W 071°04'0 0.0
2017-Dec-09 09:58N 42°23' W 071°04'0 0.0
2017-Dec-09 09:29N 42°23' W 071°04'0 0.0
2017-Dec-09 08:59N 42°23' W 071°04'0 0.0
2017-Dec-09 08:29N 42°23' W 071°04'0 0.0
2017-Dec-09 08:00N 42°23' W 071°04'0 0.0
2017-Dec-09 07:30N 42°23' W 071°04'0 0.0
2017-Dec-09 07:00N 42°23' W 071°04'0 0.0
2017-Dec-09 06:25N 42°23' W 071°04'0 0.0
2017-Dec-09 05:58N 42°23' W 071°04'0 0.0
2017-Dec-09 05:28N 42°23' W 071°04'0 0.0
2017-Dec-09 04:59N 42°23' W 071°04'0 0.0
2017-Dec-09 04:29N 42°23' W 071°04'0 0.0
2017-Dec-09 03:59N 42°23' W 071°04'0 0.0
2017-Dec-09 03:30N 42°23' W 071°04'0 0.0
2017-Dec-09 02:54N 42°23' W 071°04'0 0.0
2017-Dec-09 02:30N 42°23' W 071°04'0 0.0
2017-Dec-09 01:55N 42°23' W 071°04'0 0.0
2017-Dec-09 01:25N 42°23' W 071°04'0 0.0
2017-Dec-09 00:55N 42°23' W 071°04'0 0.0
2017-Dec-09 00:26N 42°23' W 071°04'0 0.0
2017-Dec-08 23:56N 42°23' W 071°04'0 0.0
2017-Dec-08 21:51N 42°23' W 071°04'0 0.0
2017-Dec-08 21:28N 42°23' W 071°04'0 0.0
2017-Dec-08 20:58N 42°23' W 071°04'0 0.0
2017-Dec-08 20:28N 42°23' W 071°04'0 0.0
2017-Dec-08 19:59N 42°23' W 071°04'0 0.0
2017-Dec-08 19:29N 42°23' W 071°04'0 0.0
2017-Dec-08 18:59N 42°23' W 071°04'0 0.0
2017-Dec-08 18:30N 42°23' W 071°04'0 0.0
2017-Dec-08 16:46N 42°23' W 071°04'0 0.0
2017-Dec-08 16:25N 42°23' W 071°04'0 0.0
2017-Dec-08 15:43N 42°23' W 071°04'0 0.0
2017-Dec-08 15:14N 42°23' W 071°04'0 0.0
2017-Dec-08 14:56N 42°23' W 071°04'0 0.0
2017-Dec-08 14:14N 42°23' W 071°04'0 0.0
2017-Dec-08 13:51N 42°23' W 071°04'0 0.0
2017-Dec-08 13:21N 42°23' W 071°04'0 0.0
2017-Dec-08 12:57N 42°23' W 071°04'0 0.0
2017-Dec-08 12:28N 42°23' W 071°04'0 0.0
2017-Dec-08 11:16N 42°23' W 071°04'0 0.0
2017-Dec-08 10:53N 42°23' W 071°04'0 0.0
2017-Dec-08 10:29N 42°23' W 071°04'0 0.0
2017-Dec-08 09:59N 42°23' W 071°04'0 0.0
2017-Dec-08 09:12N 42°23' W 071°04'0 0.0
2017-Dec-08 09:00N 42°23' W 071°04'0 0.0
2017-Dec-08 08:30N 42°23' W 071°04'0 0.9
2017-Dec-08 08:01N 42°23' W 071°03'1 1.7
2017-Dec-08 07:30N 42°22' W 071°03'3 6.9
2017-Dec-08 07:00N 42°20' W 070°59'5 9.1
2017-Dec-08 06:30N 42°23' W 070°54'2 4.3
2017-Dec-08 06:00N 42°24' W 070°52'3 6.2
2017-Dec-08 05:30N 42°24' W 070°48'2 3.2
2017-Dec-08 05:00N 42°25' W 070°49'0 0.5
2017-Dec-08 04:30N 42°25' W 070°49'0 0.1
2017-Dec-08 04:00N 42°25' W 070°49'0 0.1
2017-Dec-08 03:30N 42°25' W 070°50'0 0.1
2017-Dec-08 02:58N 42°25' W 070°50'0 0.0
2017-Dec-08 02:28N 42°25' W 070°50'0 0.1
2017-Dec-08 01:58N 42°25' W 070°50'0 0.2
2017-Dec-08 01:29N 42°25' W 070°49'0 0.1
2017-Dec-08 00:59N 42°25' W 070°49'0 0.0
2017-Dec-08 00:29N 42°25' W 070°49'0 0.0
2017-Dec-08 00:00N 42°25' W 070°49'0 0.0
2017-Dec-07 23:30N 42°25' W 070°49'0 0.0
2017-Dec-07 23:00N 42°25' W 070°50'0 0.0
2017-Dec-07 22:28N 42°25' W 070°50'0 0.0
2017-Dec-07 21:58N 42°25' W 070°50'0 0.1
2017-Dec-07 21:28N 42°25' W 070°49'0 0.0
2017-Dec-07 20:59N 42°25' W 070°49'0 0.0
2017-Dec-07 20:29N 42°25' W 070°49'0 0.1
2017-Dec-07 19:59N 42°25' W 070°49'0 0.2
2017-Dec-07 19:30N 42°25' W 070°50'0 0.0
2017-Dec-07 19:00N 42°25' W 070°50'0 0.1
2017-Dec-07 18:30N 42°25' W 070°49'0 0.1
2017-Dec-07 17:58N 42°25' W 070°49'0 0.1
2017-Dec-07 17:28N 42°25' W 070°49'0 0.0
2017-Dec-07 16:58N 42°25' W 070°49'0 0.0
2017-Dec-07 16:29N 42°25' W 070°49'0 0.0
2017-Dec-07 15:59N 42°25' W 070°49'0 0.1
2017-Dec-07 15:29N 42°25' W 070°49'0 0.0
2017-Dec-07 15:00N 42°25' W 070°49'0 0.0
2017-Dec-07 14:30N 42°25' W 070°49'0 0.0
2017-Dec-07 14:00N 42°25' W 070°49'0 0.1
2017-Dec-07 13:28N 42°25' W 070°49'0 0.0
2017-Dec-07 12:58N 42°25' W 070°49'0 0.0
2017-Dec-07 12:28N 42°25' W 070°49'0 0.1
2017-Dec-07 11:59N 42°25' W 070°49'0 0.1
2017-Dec-07 11:29N 42°25' W 070°50'0 0.0
2017-Dec-07 10:59N 42°25' W 070°50'0 0.1
2017-Dec-07 10:30N 42°25' W 070°49'0 0.0
2017-Dec-07 10:00N 42°25' W 070°49'0 0.1
2017-Dec-07 09:30N 42°25' W 070°50'0 0.0
2017-Dec-07 08:58N 42°25' W 070°50'0 0.1
2017-Dec-07 08:28N 42°25' W 070°50'0 0.0
2017-Dec-07 07:58N 42°25' W 070°50'0 0.0
2017-Dec-07 07:29N 42°25' W 070°50'0 0.1
2017-Dec-07 06:59N 42°25' W 070°50'0 0.0
2017-Dec-07 06:29N 42°25' W 070°50'0 0.1
2017-Dec-07 06:00N 42°25' W 070°50'0 0.1
2017-Dec-07 05:30N 42°25' W 070°50'0 0.0
2017-Dec-07 05:00N 42°25' W 070°50'0 0.0
2017-Dec-07 04:28N 42°25' W 070°50'0 0.1
2017-Dec-07 03:58N 42°25' W 070°50'0 0.1
2017-Dec-07 03:28N 42°25' W 070°50'0 0.3
2017-Dec-07 02:59N 42°25' W 070°50'0 0.1
2017-Dec-07 02:29N 42°25' W 070°49'0 0.0
2017-Dec-07 01:56N 42°25' W 070°49'0 0.1
2017-Dec-07 01:30N 42°25' W 070°49'0 0.0
2017-Dec-07 01:00N 42°25' W 070°49'0 0.1
2017-Dec-07 00:30N 42°25' W 070°49'0 0.0
2017-Dec-06 23:58N 42°25' W 070°49'0 0.0
2017-Dec-06 23:28N 42°25' W 070°49'0 0.0
2017-Dec-06 22:58N 42°25' W 070°50'0 0.0
2017-Dec-06 22:29N 42°25' W 070°50'0 0.1
2017-Dec-06 21:59N 42°25' W 070°50'0 0.1
2017-Dec-06 21:29N 42°25' W 070°49'0 0.0
2017-Dec-06 21:00N 42°25' W 070°49'  
Track history (hours):
 
Tides and Currents Weather Stations Pressure Air Temp Water Temp Dewpoint Dewpoint Depression Visibility Wind Speed Wind Dir Waves Ship Positions

Bw Gdf Suez Everett

Last reported at 2017-Dec-09 18:07 UTC. Time now 2017-Dec-15 20:01 UTC.
Position N 42°09' W 069°56'.

Length 277 m; draft 10.4 m.

MMSI: 564988000.

Date/timePositionNaut miles runAvg speedWind from/ knotsBaromVisibWave heightAir tempDewpointWater temp
2017-Dec-09 18:07N 42°09' W 069°56'110.8
2017-Dec-09 18:01N 42°10' W 069°57'611.2
2017-Dec-09 17:31N 42°15' W 070°00'6 9.7
2017-Dec-09 16:55N 42°17' W 070°07'510.8
2017-Dec-09 16:30N 42°18' W 070°13'510.9
2017-Dec-09 16:00N 42°18' W 070°21'611.3
2017-Dec-09 15:30N 42°19' W 070°28'611.2
2017-Dec-09 15:00N 42°19' W 070°36'511.0
2017-Dec-09 14:31N 42°20' W 070°43'611.3
2017-Dec-09 14:00N 42°23' W 070°49'510.4
2017-Dec-09 13:30N 42°21' W 070°56'4 8.3
2017-Dec-09 13:00N 42°21' W 071°01'3 5.1
2017-Dec-09 12:28N 42°23' W 071°03'0 1.0
2017-Dec-09 12:00N 42°23' W 071°04'0 0.0
2017-Dec-09 11:30N 42°23' W 071°04'0 0.0
2017-Dec-09 10:55N 42°23' W 071°04'0 0.0
2017-Dec-09 10:28N 42°23' W 071°04'0 0.0
2017-Dec-09 09:58N 42°23' W 071°04'0 0.0
2017-Dec-09 09:29N 42°23' W 071°04'0 0.0
2017-Dec-09 08:59N 42°23' W 071°04'0 0.0
2017-Dec-09 08:29N 42°23' W 071°04'0 0.0
2017-Dec-09 08:00N 42°23' W 071°04'0 0.0
2017-Dec-09 07:30N 42°23' W 071°04'0 0.0
2017-Dec-09 07:00N 42°23' W 071°04'0 0.0
2017-Dec-09 06:25N 42°23' W 071°04'0 0.0
2017-Dec-09 05:58N 42°23' W 071°04'0 0.0
2017-Dec-09 05:28N 42°23' W 071°04'0 0.0
2017-Dec-09 04:59N 42°23' W 071°04'0 0.0
2017-Dec-09 04:29N 42°23' W 071°04'0 0.0
2017-Dec-09 03:59N 42°23' W 071°04'0 0.0
2017-Dec-09 03:30N 42°23' W 071°04'0 0.0
2017-Dec-09 02:54N 42°23' W 071°04'0 0.0
2017-Dec-09 02:30N 42°23' W 071°04'0 0.0
2017-Dec-09 01:55N 42°23' W 071°04'0 0.0
2017-Dec-09 01:25N 42°23' W 071°04'0 0.0
2017-Dec-09 00:55N 42°23' W 071°04'0 0.0
2017-Dec-09 00:26N 42°23' W 071°04'0 0.0
2017-Dec-08 23:56N 42°23' W 071°04'0 0.0
2017-Dec-08 21:51N 42°23' W 071°04'0 0.0
2017-Dec-08 21:28N 42°23' W 071°04'0 0.0
2017-Dec-08 20:58N 42°23' W 071°04'0 0.0
2017-Dec-08 20:28N 42°23' W 071°04'0 0.0
2017-Dec-08 19:59N 42°23' W 071°04'0 0.0
2017-Dec-08 19:29N 42°23' W 071°04'0 0.0
2017-Dec-08 18:59N 42°23' W 071°04'0 0.0
2017-Dec-08 18:30N 42°23' W 071°04'0 0.0
2017-Dec-08 16:46N 42°23' W 071°04'0 0.0
2017-Dec-08 16:25N 42°23' W 071°04'0 0.0
2017-Dec-08 15:43N 42°23' W 071°04'0 0.0
2017-Dec-08 15:14N 42°23' W 071°04'0 0.0
2017-Dec-08 14:56N 42°23' W 071°04'0 0.0
2017-Dec-08 14:14N 42°23' W 071°04'0 0.0
2017-Dec-08 13:51N 42°23' W 071°04'0 0.0
2017-Dec-08 13:21N 42°23' W 071°04'0 0.0
2017-Dec-08 12:57N 42°23' W 071°04'0 0.0
2017-Dec-08 12:28N 42°23' W 071°04'0 0.0
2017-Dec-08 11:16N 42°23' W 071°04'0 0.0
2017-Dec-08 10:53N 42°23' W 071°04'0 0.0
2017-Dec-08 10:29N 42°23' W 071°04'0 0.0
2017-Dec-08 09:59N 42°23' W 071°04'0 0.0
2017-Dec-08 09:12N 42°23' W 071°04'0 0.0
2017-Dec-08 09:00N 42°23' W 071°04'0 0.0
2017-Dec-08 08:30N 42°23' W 071°04'0 0.9
2017-Dec-08 08:01N 42°23' W 071°03'1 1.7
2017-Dec-08 07:30N 42°22' W 071°03'3 6.9
2017-Dec-08 07:00N 42°20' W 070°59'5 9.1
2017-Dec-08 06:30N 42°23' W 070°54'2 4.3
2017-Dec-08 06:00N 42°24' W 070°52'3 6.2
2017-Dec-08 05:30N 42°24' W 070°48'2 3.2
2017-Dec-08 05:00N 42°25' W 070°49'0 0.5
2017-Dec-08 04:30N 42°25' W 070°49'0 0.1
2017-Dec-08 04:00N 42°25' W 070°49'0 0.1
2017-Dec-08 03:30N 42°25' W 070°50'0 0.1
2017-Dec-08 02:58N 42°25' W 070°50'0 0.0
2017-Dec-08 02:28N 42°25' W 070°50'0 0.1
2017-Dec-08 01:58N 42°25' W 070°50'0 0.2
2017-Dec-08 01:29N 42°25' W 070°49'0 0.1
2017-Dec-08 00:59N 42°25' W 070°49'0 0.0
2017-Dec-08 00:29N 42°25' W 070°49'0 0.0
2017-Dec-08 00:00N 42°25' W 070°49'0 0.0
2017-Dec-07 23:30N 42°25' W 070°49'0 0.0
2017-Dec-07 23:00N 42°25' W 070°50'0 0.0
2017-Dec-07 22:28N 42°25' W 070°50'0 0.0
2017-Dec-07 21:58N 42°25' W 070°50'0 0.1
2017-Dec-07 21:28N 42°25' W 070°49'0 0.0
2017-Dec-07 20:59N 42°25' W 070°49'0 0.0
2017-Dec-07 20:29N 42°25' W 070°49'0 0.1
2017-Dec-07 19:59N 42°25' W 070°49'0 0.2
2017-Dec-07 19:30N 42°25' W 070°50'0 0.0
2017-Dec-07 19:00N 42°25' W 070°50'0 0.1
2017-Dec-07 18:30N 42°25' W 070°49'0 0.1
2017-Dec-07 17:58N 42°25' W 070°49'0 0.1
2017-Dec-07 17:28N 42°25' W 070°49'0 0.0
2017-Dec-07 16:58N 42°25' W 070°49'0 0.0
2017-Dec-07 16:29N 42°25' W 070°49'0 0.0
2017-Dec-07 15:59N 42°25' W 070°49'0 0.1
2017-Dec-07 15:29N 42°25' W 070°49'0 0.0
2017-Dec-07 15:00N 42°25' W 070°49'0 0.0
2017-Dec-07 14:30N 42°25' W 070°49'0 0.0
2017-Dec-07 14:00N 42°25' W 070°49'0 0.1
2017-Dec-07 13:28N 42°25' W 070°49'0 0.0
2017-Dec-07 12:58N 42°25' W 070°49'0 0.0
2017-Dec-07 12:28N 42°25' W 070°49'0 0.1
2017-Dec-07 11:59N 42°25' W 070°49'0 0.1
2017-Dec-07 11:29N 42°25' W 070°50'0 0.0
2017-Dec-07 10:59N 42°25' W 070°50'0 0.1
2017-Dec-07 10:30N 42°25' W 070°49'0 0.0
2017-Dec-07 10:00N 42°25' W 070°49'0 0.1
2017-Dec-07 09:30N 42°25' W 070°50'0 0.0
2017-Dec-07 08:58N 42°25' W 070°50'0 0.1
2017-Dec-07 08:28N 42°25' W 070°50'0 0.0
2017-Dec-07 07:58N 42°25' W 070°50'0 0.0
2017-Dec-07 07:29N 42°25' W 070°50'0 0.1
2017-Dec-07 06:59N 42°25' W 070°50'0 0.0
2017-Dec-07 06:29N 42°25' W 070°50'0 0.1
2017-Dec-07 06:00N 42°25' W 070°50'0 0.1
2017-Dec-07 05:30N 42°25' W 070°50'0 0.0
2017-Dec-07 05:00N 42°25' W 070°50'0 0.0
2017-Dec-07 04:28N 42°25' W 070°50'0 0.1
2017-Dec-07 03:58N 42°25' W 070°50'0 0.1
2017-Dec-07 03:28N 42°25' W 070°50'0 0.3
2017-Dec-07 02:59N 42°25' W 070°50'0 0.1
2017-Dec-07 02:29N 42°25' W 070°49'0 0.0
2017-Dec-07 01:56N 42°25' W 070°49'0 0.1
2017-Dec-07 01:30N 42°25' W 070°49'0 0.0
2017-Dec-07 01:00N 42°25' W 070°49'0 0.1
2017-Dec-07 00:30N 42°25' W 070°49'0 0.0
2017-Dec-06 23:58N 42°25' W 070°49'0 0.0
2017-Dec-06 23:28N 42°25' W 070°49'0 0.0
2017-Dec-06 22:58N 42°25' W 070°50'0 0.0
2017-Dec-06 22:29N 42°25' W 070°50'0 0.1
2017-Dec-06 21:59N 42°25' W 070°50'0 0.1
2017-Dec-06 21:29N 42°25' W 070°49'0 0.0
2017-Dec-06 21:00N 42°25' W 070°49'  

Dump ship's entire track history